Time;durP1;ratioP1;P1;durP2;ratioP2;P2;SDS_P1;SDS_P2;PMS_P1;PMS_P2;Temp;Humidity;BMP_temperature;BMP_pressure;BME280_temperature;BME280_humidity;BME280_pressure;Samples;Min_cycle;Max_cycle;Signal;HPM_P1;HPM_P2
2020/12/05 00:02:01;;;;;;;44.58;22.40;;;3.00;99.90;;;;;;5046741;28;20906;-52
2020/12/05 00:04:27;;;;;;;41.23;21.40;;;3.50;99.90;;;;;;5048634;28;20956;-53
2020/12/05 00:06:52;;;;;;;46.07;22.63;;;4.80;99.90;;;;;;5046647;28;20457;-53
2020/12/05 00:09:18;;;;;;;37.80;21.60;;;3.80;99.90;;;;;;5047877;28;20394;-53
2020/12/05 00:11:44;;;;;;;44.30;21.30;;;2.90;99.90;;;;;;5043517;28;20394;-53
2020/12/05 00:14:09;;;;;;;41.42;21.15;;;3.00;99.90;;;;;;5038330;28;20391;-53
2020/12/05 00:16:35;;;;;;;44.13;22.47;;;3.00;99.90;;;;;;5047490;28;20941;-53
2020/12/05 00:19:00;;;;;;;43.40;22.50;;;3.20;99.90;;;;;;5048427;28;20416;-52
2020/12/05 00:21:26;;;;;;;41.17;21.08;;;2.90;99.90;;;;;;5080238;28;20417;-53
2020/12/05 00:23:52;;;;;;;40.70;21.53;;;2.80;99.90;;;;;;5047734;28;20480;-52
2020/12/05 00:26:20;;;;;;;44.90;22.40;;;5.40;99.90;;;;;;5047718;28;20429;-53
2020/12/05 00:28:47;;;;;;;42.65;21.35;;;3.00;99.90;;;;;;5046936;28;20451;-53
2020/12/05 00:31:13;;;;;;;43.65;22.00;;;2.70;99.90;;;;;;5049548;28;20384;-53
2020/12/05 00:33:40;;;;;;;41.08;22.13;;;2.80;99.90;;;;;;5047607;28;20406;-53
2020/12/05 00:36:06;;;;;;;40.55;21.42;;;2.90;99.90;;;;;;5048419;28;20394;-53
2020/12/05 00:38:32;;;;;;;40.90;22.23;;;3.00;99.90;;;;;;5048595;28;20386;-53
2020/12/05 00:40:57;;;;;;;43.20;22.20;;;3.10;99.90;;;;;;5047497;28;20390;-53
2020/12/05 00:43:23;;;;;;;42.25;20.77;;;3.20;99.90;;;;;;5049255;28;20523;-53
2020/12/05 00:45:49;;;;;;;45.27;23.60;;;3.50;99.90;;;;;;5047768;28;20417;-52
2020/12/05 00:48:15;;;;;;;49.40;24.67;;;2.70;99.90;;;;;;5052601;28;20385;-53
2020/12/05 00:50:41;;;;;;;47.90;24.00;;;2.70;99.90;;;;;;5053118;28;20378;-56
2020/12/05 00:53:07;;;;;;;45.00;24.73;;;2.80;99.90;;;;;;5051215;28;20427;-55
2020/12/05 00:55:33;;;;;;;44.07;23.60;;;3.70;99.90;;;;;;5051544;28;20381;-53
2020/12/05 00:57:58;;;;;;;47.77;23.60;;;4.30;99.90;;;;;;5049606;28;20483;-52
2020/12/05 01:00:24;;;;;;;49.88;23.77;;;3.50;99.90;;;;;;5052838;28;20893;-53
2020/12/05 01:02:50;;;;;;;47.13;24.17;;;4.00;99.90;;;;;;5050431;28;20404;-53
2020/12/05 01:05:16;;;;;;;47.03;22.70;;;2.60;99.90;;;;;;5053346;28;20538;-53
2020/12/05 01:07:41;;;;;;;44.80;22.85;;;3.20;99.90;;;;;;5050438;28;20496;-56
2020/12/05 01:10:07;;;;;;;43.22;22.80;;;4.90;99.90;;;;;;5051219;28;20396;-53
2020/12/05 01:12:33;;;;;;;41.53;22.50;;;4.60;99.90;;;;;;5051070;28;20731;-53
2020/12/05 01:15:03;;;;;;;46.00;24.30;;;2.70;99.90;;;;;;5049844;28;20483;-52
2020/12/05 01:17:32;;;;;;;50.05;24.75;;;4.50;99.90;;;;;;5052630;28;20811;-52
2020/12/05 01:20:00;;;;;;;51.28;24.25;;;4.40;99.90;;;;;;5050259;28;20401;-53
2020/12/05 01:22:26;;;;;;;50.80;24.80;;;3.90;99.90;;;;;;5050645;28;20406;-53
2020/12/05 01:24:51;;;;;;;52.67;25.33;;;4.40;99.90;;;;;;5065644;28;20401;-53
2020/12/05 01:27:17;;;;;;;50.58;25.40;;;2.40;99.90;;;;;;5051332;28;20416;-53
2020/12/05 01:29:44;;;;;;;50.38;24.98;;;2.40;99.90;;;;;;5050158;28;20477;-57
2020/12/05 01:32:10;;;;;;;49.93;25.00;;;2.50;99.90;;;;;;5051514;28;20473;-53
2020/12/05 01:34:35;;;;;;;48.33;24.10;;;4.90;99.90;;;;;;5051219;28;21132;-54
2020/12/05 01:37:01;;;;;;;48.90;24.57;;;4.30;99.90;;;;;;5053101;28;20556;-54
2020/12/05 01:39:27;;;;;;;46.53;23.20;;;3.40;99.90;;;;;;5050277;28;20393;-53
2020/12/05 01:41:53;;;;;;;47.03;23.53;;;2.80;99.90;;;;;;5050093;28;20415;-53
2020/12/05 01:44:18;;;;;;;51.37;23.53;;;5.60;99.90;;;;;;5051154;28;20472;-53
2020/12/05 01:46:47;;;;;;;53.88;24.10;;;2.70;99.90;;;;;;5048596;28;20420;-57
2020/12/05 01:49:15;;;;;;;49.15;24.10;;;2.70;99.90;;;;;;5031963;28;20464;-52
2020/12/05 01:51:41;;;;;;;45.30;23.65;;;2.80;99.90;;;;;;5042354;28;20492;-53
2020/12/05 01:54:07;;;;;;;42.17;22.20;;;2.90;99.90;;;;;;5050255;28;20493;-53
2020/12/05 01:56:33;;;;;;;46.85;24.25;;;3.10;99.90;;;;;;5050681;28;20433;-53
2020/12/05 01:58:59;;;;;;;45.70;24.02;;;4.30;99.90;;;;;;5048492;28;20394;-53
2020/12/05 02:01:27;;;;;;;49.05;24.80;;;3.40;99.90;;;;;;5051830;28;20381;-53
2020/12/05 02:03:57;;;;;;;52.57;26.03;;;4.20;99.90;;;;;;5048066;28;20428;-54
2020/12/05 02:07:13;;;;;;;47.83;25.00;;;4.50;99.90;;;;;;5051511;28;20427;-53
2020/12/05 02:09:44;;;;;;;43.67;23.20;;;3.50;99.90;;;;;;5044861;28;20409;-53
2020/12/05 02:12:39;;;;;;;45.28;22.92;;;3.50;99.90;;;;;;5050477;28;20472;-52
2020/12/05 02:15:16;;;;;;;44.60;23.15;;;3.50;99.90;;;;;;5049681;28;20401;-53
2020/12/05 02:18:06;;;;;;;43.13;22.15;;;6.00;99.90;;;;;;5051246;28;20439;-53
2020/12/05 02:20:37;;;;;;;46.38;22.85;;;3.30;99.90;;;;;;5049020;28;20405;-53
2020/12/05 02:23:19;;;;;;;45.40;22.73;;;3.20;99.90;;;;;;5050973;28;20405;-54
2020/12/05 02:25:51;;;;;;;44.05;23.23;;;3.30;99.90;;;;;;5051102;28;20418;-57
2020/12/05 02:28:21;;;;;;;41.22;22.83;;;3.30;99.90;;;;;;5049134;28;20483;-53
2020/12/05 02:30:50;;;;;;;48.17;24.00;;;3.20;99.90;;;;;;5049547;28;20396;-58
2020/12/05 02:33:16;;;;;;;43.67;22.77;;;4.10;99.90;;;;;;5050313;28;20405;-52
2020/12/05 02:35:42;;;;;;;45.60;23.50;;;3.90;99.90;;;;;;5049044;28;20398;-52
2020/12/05 02:38:22;;;;;;;51.30;24.97;;;2.90;99.90;;;;;;5048253;28;20475;-53
2020/12/05 02:40:51;;;;;;;40.47;22.88;;;3.00;99.90;;;;;;5049874;28;20480;-53
2020/12/05 02:43:16;;;;;;;48.95;24.00;;;3.00;99.90;;;;;;5049567;28;20393;-54
2020/12/05 02:45:42;;;;;;;38.17;21.87;;;3.10;99.90;;;;;;5049088;28;20787;-53
2020/12/05 02:48:08;;;;;;;47.20;23.55;;;3.40;99.90;;;;;;5050077;28;20385;-54
2020/12/05 02:50:34;;;;;;;39.33;20.42;;;3.20;99.90;;;;;;5047716;28;20459;-54
2020/12/05 02:53:00;;;;;;;40.10;21.65;;;5.60;99.90;;;;;;5049763;28;20880;-54
2020/12/05 02:55:26;;;;;;;38.93;21.33;;;5.50;99.90;;;;;;5049499;28;20397;-53
2020/12/05 02:57:52;;;;;;;43.60;21.70;;;3.50;99.90;;;;;;5049801;28;20389;-55
2020/12/05 03:00:17;;;;;;;42.00;21.38;;;5.50;99.90;;;;;;5047733;28;20971;-54
2020/12/05 03:02:43;;;;;;;38.80;20.40;;;5.60;99.90;;;;;;5050316;28;20737;-55
2020/12/05 03:05:09;;;;;;;37.67;19.70;;;5.10;99.90;;;;;;5047124;28;20863;-52
2020/12/05 03:07:35;;;;;;;32.00;17.80;;;3.00;99.90;;;;;;5081720;28;20409;-54
2020/12/05 03:10:00;;;;;;;33.90;17.42;;;4.30;99.90;;;;;;5046195;28;20393;-54
2020/12/05 03:12:26;;;;;;;27.60;15.77;;;4.20;99.90;;;;;;5048737;28;20397;-52
2020/12/05 03:14:51;;;;;;;36.50;17.50;;;4.20;99.90;;;;;;5049010;28;20385;-54
2020/12/05 03:17:17;;;;;;;30.60;16.70;;;4.20;99.90;;;;;;5049735;28;20382;-55
2020/12/05 03:19:43;;;;;;;28.90;16.27;;;3.00;99.90;;;;;;5049047;28;20432;-57
2020/12/05 03:22:08;;;;;;;30.15;15.77;;;2.80;99.90;;;;;;5046813;28;20404;-54
2020/12/05 03:24:34;;;;;;;30.97;15.70;;;4.30;99.90;;;;;;5049859;28;20394;-54
2020/12/05 03:27:00;;;;;;;27.98;14.90;;;3.30;99.90;;;;;;5047504;28;20451;-52
2020/12/05 03:29:26;;;;;;;27.20;15.60;;;3.20;99.90;;;;;;5047396;28;20393;-52
2020/12/05 03:31:59;;;;;;;28.17;15.40;;;2.90;99.90;;;;;;5047612;28;20400;-52
2020/12/05 03:34:24;;;;;;;24.20;13.98;;;2.90;99.90;;;;;;5048994;28;20389;-54
2020/12/05 03:36:50;;;;;;;22.67;12.93;;;2.90;99.90;;;;;;5047256;28;20397;-54
2020/12/05 03:39:16;;;;;;;24.20;13.90;;;2.90;99.90;;;;;;5048993;28;20382;-54
2020/12/05 03:41:42;;;;;;;23.30;12.48;;;3.00;99.90;;;;;;5049867;28;20411;-54
2020/12/05 03:44:08;;;;;;;20.20;12.07;;;3.00;99.90;;;;;;5047362;28;20961;-54
2020/12/05 03:46:34;;;;;;;22.25;12.45;;;5.00;99.90;;;;;;5048402;28;20471;-52
2020/12/05 03:48:59;;;;;;;28.13;13.70;;;4.50;99.90;;;;;;5049364;28;20374;-52
2020/12/05 03:51:26;;;;;;;22.90;12.70;;;2.90;99.90;;;;;;5046914;28;20393;-52
2020/12/05 03:53:52;;;;;;;23.48;12.82;;;5.30;99.90;;;;;;5048475;28;20389;-52
2020/12/05 03:56:17;;;;;;;23.55;12.93;;;4.90;99.90;;;;;;5047972;28;20767;-51
2020/12/05 03:58:43;;;;;;;23.40;13.80;;;2.90;99.90;;;;;;5047678;28;20403;-56
2020/12/05 04:01:09;;;;;;;24.83;13.47;;;4.90;99.90;;;;;;5046944;28;20421;-52
2020/12/05 04:03:35;;;;;;;25.52;14.07;;;3.30;99.90;;;;;;5048010;28;20512;-52
2020/12/05 04:06:00;;;;;;;26.40;13.65;;;2.80;99.90;;;;;;5047902;28;20970;-52
2020/12/05 04:08:26;;;;;;;20.93;12.63;;;3.20;99.90;;;;;;5048000;28;20397;-53
2020/12/05 04:10:52;;;;;;;24.20;12.93;;;4.10;99.90;;;;;;5040495;28;20550;-53
2020/12/05 04:13:17;;;;;;;24.08;12.63;;;5.10;99.90;;;;;;5047825;28;20405;-53
2020/12/05 04:15:43;;;;;;;23.47;12.50;;;2.80;99.90;;;;;;5050946;28;20740;-56
2020/12/05 04:18:09;;;;;;;22.83;13.25;;;2.80;99.90;;;;;;5046755;28;21314;-53
2020/12/05 04:20:34;;;;;;;22.10;12.68;;;5.50;99.90;;;;;;5047670;28;20860;-53
2020/12/05 04:23:00;;;;;;;20.47;12.30;;;2.90;99.90;;;;;;5052507;28;20390;-53
2020/12/05 04:25:26;;;;;;;21.17;12.20;;;4.50;99.90;;;;;;5051782;28;20458;-53
2020/12/05 04:27:52;;;;;;;23.40;12.85;;;3.20;99.90;;;;;;5052324;28;20416;-53
2020/12/05 04:30:18;;;;;;;23.35;12.63;;;3.90;99.90;;;;;;5053019;28;20409;-53
2020/12/05 04:32:43;;;;;;;23.92;13.18;;;2.80;99.90;;;;;;5051903;28;20408;-56
2020/12/05 04:35:10;;;;;;;23.10;13.17;;;2.70;99.90;;;;;;5050867;28;20401;-53
2020/12/05 04:37:35;;;;;;;24.10;12.83;;;5.50;99.90;;;;;;5053645;28;20373;-53
2020/12/05 04:40:02;;;;;;;22.17;12.77;;;3.20;99.90;;;;;;5051011;28;20502;-53
2020/12/05 04:42:27;;;;;;;22.87;12.70;;;3.80;99.90;;;;;;5051167;28;20428;-53
2020/12/05 04:44:54;;;;;;;22.37;12.97;;;2.80;99.90;;;;;;5050411;28;20429;-53
2020/12/05 04:47:20;;;;;;;24.98;13.40;;;2.80;99.90;;;;;;5052191;28;20377;-53
2020/12/05 04:49:47;;;;;;;25.80;14.40;;;4.30;99.90;;;;;;5050409;28;20727;-53
2020/12/05 04:52:18;;;;;;;28.40;14.60;;;2.60;99.90;;;;;;5052690;28;20400;-53
2020/12/05 04:54:48;;;;;;;28.42;14.68;;;2.70;99.90;;;;;;5051552;28;20454;-54
2020/12/05 04:57:20;;;;;;;29.50;15.38;;;4.70;99.90;;;;;;5052083;28;20451;-53
2020/12/05 04:59:47;;;;;;;30.73;15.40;;;2.70;99.90;;;;;;5051665;28;20510;-56
2020/12/05 05:02:15;;;;;;;28.08;15.70;;;3.70;99.90;;;;;;5053078;28;20870;-53
2020/12/05 05:04:41;;;;;;;28.40;15.57;;;2.70;99.90;;;;;;5052120;28;20397;-53
2020/12/05 05:07:06;;;;;;;30.98;15.23;;;3.60;99.90;;;;;;5050789;28;20467;-53
2020/12/05 05:09:32;;;;;;;27.80;15.70;;;3.00;99.90;;;;;;5050383;28;20405;-53
2020/12/05 05:11:58;;;;;;;29.37;16.17;;;2.60;99.90;;;;;;5050665;28;20401;-53
2020/12/05 05:14:33;;;;;;;26.63;15.23;;;3.10;99.90;;;;;;5044133;28;20386;-53
2020/12/05 05:17:04;;;;;;;30.00;15.23;;;3.20;99.90;;;;;;5048089;28;20890;-54
2020/12/05 05:19:29;;;;;;;27.75;16.20;;;2.60;99.90;;;;;;5052553;28;20468;-53
2020/12/05 05:21:56;;;;;;;32.80;16.80;;;2.60;99.90;;;;;;5049595;28;20448;-54
2020/12/05 05:24:22;;;;;;;29.05;16.42;;;2.60;99.90;;;;;;5052309;28;20373;-53
2020/12/05 05:27:08;;;;;;;28.40;15.77;;;4.70;99.90;;;;;;5049568;28;20825;-56
2020/12/05 05:29:42;;;;;;;29.88;16.00;;;4.70;99.90;;;;;;5052399;28;20473;-53
2020/12/05 05:32:21;;;;;;;29.30;15.55;;;2.80;99.90;;;;;;5049322;28;20455;-53
2020/12/05 05:34:47;;;;;;;33.42;16.25;;;5.60;99.90;;;;;;5051744;28;20413;-56
2020/12/05 05:37:17;;;;;;;33.00;17.10;;;5.60;99.90;;;;;;5050681;28;20491;-53
2020/12/05 05:39:48;;;;;;;28.73;16.10;;;5.50;99.90;;;;;;5051945;28;20381;-53
2020/12/05 05:42:30;;;;;;;28.03;16.07;;;2.90;99.90;;;;;;5050221;28;20871;-53
2020/12/05 05:45:14;;;;;;;28.67;15.88;;;2.70;99.90;;;;;;5050931;28;20452;-53
2020/12/05 05:47:41;;;;;;;27.42;15.75;;;3.80;99.90;;;;;;5050493;28;20397;-53
2020/12/05 05:50:27;;;;;;;29.40;15.85;;;2.60;99.90;;;;;;5051004;28;20451;-53
2020/12/05 05:53:00;;;;;;;27.38;15.43;;;3.90;99.90;;;;;;5049088;28;20405;-53
2020/12/05 05:55:52;;;;;;;33.30;15.77;;;2.60;99.90;;;;;;5052170;28;20392;-53
2020/12/05 05:58:20;;;;;;;30.67;15.17;;;2.60;99.90;;;;;;5049721;28;20495;-54
2020/12/05 06:00:51;;;;;;;30.60;14.80;;;3.50;99.90;;;;;;5049999;28;20386;-58
2020/12/05 06:03:27;;;;;;;30.08;16.05;;;3.50;99.90;;;;;;5049925;28;20389;-54
2020/12/05 06:05:58;;;;;;;26.92;15.20;;;2.70;99.90;;;;;;5050500;28;20708;-54
2020/12/05 06:08:26;;;;;;;28.83;15.00;;;2.80;99.90;;;;;;5051264;28;20912;-55
2020/12/05 06:11:02;;;;;;;27.67;15.00;;;2.70;99.90;;;;;;5049098;28;20428;-55
2020/12/05 06:13:30;;;;;;;27.63;15.55;;;2.80;99.90;;;;;;5049566;28;20475;-54
2020/12/05 06:16:00;;;;;;;27.08;16.30;;;2.90;99.90;;;;;;5050131;28;20404;-54
2020/12/05 06:18:26;;;;;;;29.65;15.57;;;2.90;99.90;;;;;;5049955;28;20432;-55
2020/12/05 06:20:52;;;;;;;29.50;16.13;;;3.00;99.90;;;;;;5048708;28;20397;-54
2020/12/05 06:23:31;;;;;;;25.63;14.93;;;4.00;99.90;;;;;;5051223;28;20743;-54
2020/12/05 06:25:59;;;;;;;27.60;15.50;;;2.90;99.90;;;;;;5050455;28;20440;-55
2020/12/05 06:28:25;;;;;;;29.35;14.80;;;2.90;99.90;;;;;;5049902;28;20389;-54
2020/12/05 06:30:52;;;;;;;25.60;15.05;;;4.60;99.90;;;;;;5049013;28;20906;-54
2020/12/05 06:33:37;;;;;;;24.60;15.48;;;2.90;99.90;;;;;;5048343;28;20412;-54
2020/12/05 06:36:29;;;;;;;25.80;14.48;;;2.80;99.90;;;;;;5054247;28;20891;-54
2020/12/05 06:39:09;;;;;;;25.33;14.43;;;2.70;99.90;;;;;;5059281;28;20483;-55
2020/12/05 06:41:36;;;;;;;23.35;13.65;;;2.90;99.90;;;;;;5054045;28;20455;-54
2020/12/05 06:44:15;;;;;;;27.10;14.27;;;2.70;99.90;;;;;;5041530;28;20398;-54
2020/12/05 06:46:52;;;;;;;23.55;11.90;;;3.70;99.90;;;;;;5044600;28;20413;-54
2020/12/05 06:49:38;;;;;;;23.50;11.88;;;2.90;99.90;;;;;;5035272;28;20391;-55
2020/12/05 06:52:24;;;;;;;24.27;13.10;;;3.70;99.90;;;;;;5037408;28;20810;-54
2020/12/05 06:54:54;;;;;;;23.33;12.63;;;3.20;99.90;;;;;;5049753;28;20843;-57
2020/12/05 06:57:22;;;;;;;21.67;12.70;;;3.20;99.90;;;;;;5041517;28;21018;-56
2020/12/05 06:59:48;;;;;;;20.65;10.93;;;3.40;99.90;;;;;;5047857;28;20518;-58
2020/12/05 07:02:27;;;;;;;21.10;11.63;;;3.10;99.90;;;;;;5049798;28;20491;-55
2020/12/05 07:05:18;;;;;;;21.40;10.80;;;3.60;99.90;;;;;;5049765;28;20377;-56
2020/12/05 07:07:48;;;;;;;22.88;11.13;;;2.90;99.90;;;;;;5048520;28;20406;-55
2020/12/05 07:10:15;;;;;;;19.00;10.35;;;3.80;99.90;;;;;;5048612;28;20397;-55
2020/12/05 07:12:42;;;;;;;23.17;11.53;;;3.80;99.90;;;;;;5082083;28;20420;-55
2020/12/05 07:15:34;;;;;;;21.13;11.07;;;2.70;99.90;;;;;;5047750;28;20901;-55
2020/12/05 07:18:00;;;;;;;22.35;12.20;;;4.40;99.90;;;;;;5048838;28;20421;-55
2020/12/05 07:20:26;;;;;;;23.13;12.50;;;2.70;99.90;;;;;;5048778;28;20871;-57
2020/12/05 07:22:53;;;;;;;18.75;10.73;;;4.60;99.90;;;;;;5049214;28;20813;-54
2020/12/05 07:25:19;;;;;;;21.48;12.07;;;2.70;99.90;;;;;;5048049;28;20425;-55
2020/12/05 07:27:45;;;;;;;19.40;11.02;;;4.20;99.90;;;;;;5049506;28;20449;-56
2020/12/05 07:30:11;;;;;;;20.50;11.13;;;3.00;99.90;;;;;;5047558;28;20401;-54
2020/12/05 07:32:40;;;;;;;18.48;10.20;;;5.20;99.90;;;;;;5049529;28;20385;-55
2020/12/05 07:35:08;;;;;;;22.35;11.70;;;2.90;99.90;;;;;;5042943;28;21218;-54
2020/12/05 07:37:34;;;;;;;20.63;11.45;;;2.90;99.90;;;;;;5036732;28;20381;-53
2020/12/05 07:40:02;;;;;;;21.00;12.53;;;2.90;99.90;;;;;;5049318;28;20378;-53
2020/12/05 07:42:36;;;;;;;21.83;11.50;;;3.00;99.90;;;;;;5051372;28;20480;-53
2020/12/05 07:45:07;;;;;;;20.77;12.20;;;2.90;99.90;;;;;;5029546;28;20486;-52
2020/12/05 07:47:33;;;;;;;20.80;11.68;;;2.90;99.90;;;;;;5035641;28;20587;-54
2020/12/05 07:50:00;;;;;;;21.02;11.48;;;5.60;99.90;;;;;;5050072;28;20460;-54
2020/12/05 07:52:26;;;;;;;23.80;11.70;;;3.00;99.90;;;;;;5054778;28;20417;-57
2020/12/05 07:54:55;;;;;;;20.90;10.93;;;3.70;99.90;;;;;;5056653;28;20482;-57
2020/12/05 07:57:23;;;;;;;20.20;11.20;;;2.70;99.90;;;;;;5049349;28;20744;-53
2020/12/05 07:59:48;;;;;;;18.35;11.13;;;2.80;99.90;;;;;;5054318;28;20432;-58
2020/12/05 08:02:25;;;;;;;20.40;10.82;;;2.90;99.90;;;;;;5057708;28;20485;-53
2020/12/05 08:04:55;;;;;;;19.25;11.00;;;4.90;99.90;;;;;;5041658;28;20929;-58
2020/12/05 08:07:35;;;;;;;17.63;10.80;;;3.40;99.90;;;;;;5056062;28;20493;-53
2020/12/05 08:10:09;;;;;;;17.80;10.43;;;3.00;99.90;;;;;;5041990;28;20391;-54
2020/12/05 08:12:44;;;;;;;16.55;9.88;;;4.70;99.90;;;;;;5040866;28;20401;-53
2020/12/05 08:15:19;;;;;;;17.55;9.30;;;3.10;99.90;;;;;;5055044;28;21112;-55
2020/12/05 08:17:46;;;;;;;17.52;9.57;;;3.10;99.90;;;;;;5034970;28;21002;-54
2020/12/05 08:20:13;;;;;;;16.70;9.10;;;4.70;99.90;;;;;;5057879;28;20877;-54
2020/12/05 08:22:39;;;;;;;14.63;8.88;;;3.40;99.90;;;;;;5057035;28;20396;-55
2020/12/05 08:25:06;;;;;;;16.02;9.52;;;3.50;99.90;;;;;;5057660;28;20392;-54
2020/12/05 08:27:32;;;;;;;18.97;10.50;;;3.70;99.90;;;;;;5056297;28;20796;-54
2020/12/05 08:29:59;;;;;;;22.52;14.85;;;3.90;99.90;;;;;;5056471;28;20922;-54
2020/12/05 08:32:25;;;;;;;20.40;11.48;;;3.90;99.90;;;;;;5048002;28;20421;-56
2020/12/05 08:35:01;;;;;;;15.93;9.55;;;4.20;99.90;;;;;;5048082;28;20432;-57
2020/12/05 08:37:26;;;;;;;16.27;9.30;;;4.10;99.90;;;;;;5041344;28;20500;-54
2020/12/05 08:39:53;;;;;;;13.35;7.75;;;5.10;99.90;;;;;;5036760;28;20575;-58
2020/12/05 08:42:19;;;;;;;13.73;7.20;;;6.50;99.90;;;;;;5029731;28;20391;-54
2020/12/05 08:44:45;;;;;;;16.15;7.50;;;4.00;99.90;;;;;;5048564;28;20459;-54
2020/12/05 08:47:11;;;;;;;11.00;6.88;;;4.10;99.90;;;;;;5047788;28;20523;-53
2020/12/05 08:49:39;;;;;;;11.27;6.27;;;4.20;99.90;;;;;;5043508;28;20763;-53
2020/12/05 08:52:06;;;;;;;10.20;5.97;;;6.60;99.90;;;;;;5047339;28;20402;-54
2020/12/05 08:54:41;;;;;;;12.35;6.35;;;4.40;99.90;;;;;;5047671;28;20405;-53
2020/12/05 08:57:09;;;;;;;11.63;7.20;;;4.50;99.90;;;;;;5049449;28;20854;-54
2020/12/05 08:59:35;;;;;;;9.85;6.57;;;4.70;99.90;;;;;;5047126;28;20450;-54
2020/12/05 09:02:01;;;;;;;13.07;6.90;;;4.50;99.90;;;;;;5048006;28;20456;-54
2020/12/05 09:04:30;;;;;;;11.32;6.05;;;4.50;99.90;;;;;;5046776;28;20393;-54
2020/12/05 09:07:16;;;;;;;14.38;7.78;;;4.50;99.90;;;;;;5046463;28;20432;-53
2020/12/05 09:09:44;;;;;;;14.20;7.88;;;6.60;99.90;;;;;;5052368;28;20408;-53
2020/12/05 09:12:11;;;;;;;18.52;10.90;;;4.60;99.90;;;;;;5050940;28;20397;-53
2020/12/05 09:14:38;;;;;;;18.23;12.03;;;4.60;99.90;;;;;;5052745;28;20378;-54
2020/12/05 09:17:19;;;;;;;19.20;11.40;;;5.10;99.90;;;;;;5051067;28;20423;-53
2020/12/05 09:19:45;;;;;;;20.27;12.75;;;4.50;99.90;;;;;;5050984;28;20425;-53
2020/12/05 09:22:29;;;;;;;21.50;13.57;;;4.30;99.90;;;;;;5051074;28;20431;-53
2020/12/05 09:24:54;;;;;;;25.10;14.93;;;4.10;99.90;;;;;;5051444;28;20876;-58
2020/12/05 09:27:20;;;;;;;27.30;15.23;;;4.10;99.90;;;;;;5048121;28;20413;-52
2020/12/05 09:29:45;;;;;;;22.20;13.65;;;5.80;99.90;;;;;;5048807;28;20369;-53
2020/12/05 09:32:11;;;;;;;23.17;13.20;;;3.90;99.90;;;;;;5049345;28;20397;-54
2020/12/05 09:34:38;;;;;;;20.25;12.10;;;4.60;99.90;;;;;;5051903;28;20474;-53
2020/12/05 09:37:11;;;;;;;17.80;12.20;;;6.40;99.90;;;;;;5047683;28;20497;-53
2020/12/05 09:39:37;;;;;;;20.75;11.55;;;4.10;99.90;;;;;;5035488;28;20469;-53
2020/12/05 09:42:03;;;;;;;16.77;10.73;;;4.20;99.90;;;;;;5052095;28;21001;-54
2020/12/05 09:44:29;;;;;;;14.68;9.65;;;4.30;99.90;;;;;;5046294;28;20870;-53
2020/12/05 09:46:55;;;;;;;14.20;8.98;;;4.30;99.90;;;;;;5048823;28;20429;-56
2020/12/05 09:49:20;;;;;;;18.40;10.70;;;6.80;99.90;;;;;;5051538;28;20478;-52
2020/12/05 09:51:46;;;;;;;17.42;10.60;;;5.00;99.90;;;;;;5053854;28;20836;-52
2020/12/05 09:54:12;;;;;;;17.42;10.50;;;4.10;99.90;;;;;;5062382;28;20892;-52
2020/12/05 09:56:37;;;;;;;13.90;10.03;;;4.10;99.90;;;;;;5057431;28;20474;-54
2020/12/05 09:59:03;;;;;;;16.35;10.23;;;4.30;99.90;;;;;;5051973;28;20393;-52
2020/12/05 10:01:29;;;;;;;16.53;10.60;;;5.10;99.90;;;;;;5049586;28;20407;-52
2020/12/05 10:03:55;;;;;;;17.90;10.63;;;4.60;99.90;;;;;;5045753;28;20897;-56
2020/12/05 10:06:21;;;;;;;20.15;11.13;;;4.20;99.90;;;;;;5047998;28;20827;-53
2020/12/05 10:08:47;;;;;;;18.17;11.50;;;4.10;99.90;;;;;;5036023;28;20480;-52
2020/12/05 10:11:12;;;;;;;18.70;12.13;;;4.10;99.90;;;;;;5045324;28;20397;-53
2020/12/05 10:13:38;;;;;;;17.73;11.60;;;4.20;99.90;;;;;;5035465;28;20843;-52
2020/12/05 10:16:03;;;;;;;21.37;11.20;;;5.70;99.90;;;;;;5049196;28;20474;-52
2020/12/05 10:18:29;;;;;;;18.83;10.30;;;4.30;99.90;;;;;;5045411;28;20395;-52
2020/12/05 10:20:54;;;;;;;16.00;10.17;;;4.20;99.90;;;;;;5046627;28;20409;-55
2020/12/05 10:23:20;;;;;;;17.77;10.77;;;4.20;99.90;;;;;;5049159;28;20779;-52
2020/12/05 10:25:46;;;;;;;20.38;11.98;;;4.30;99.90;;;;;;5049877;28;20418;-53
2020/12/05 10:28:11;;;;;;;17.80;11.30;;;5.10;99.90;;;;;;5040964;28;20728;-52
2020/12/05 10:30:37;;;;;;;16.50;11.10;;;4.40;99.90;;;;;;5050836;28;20378;-53
2020/12/05 10:33:02;;;;;;;17.27;11.27;;;4.30;99.90;;;;;;5047823;28;20417;-53
2020/12/05 10:35:28;;;;;;;18.58;11.75;;;4.30;99.90;;;;;;5047948;28;20820;-51
2020/12/05 10:37:54;;;;;;;16.75;11.07;;;4.80;99.90;;;;;;5060121;28;20397;-51
2020/12/05 10:40:19;;;;;;;20.97;11.77;;;4.30;99.90;;;;;;5057537;28;20396;-53
2020/12/05 10:42:45;;;;;;;19.73;11.68;;;4.90;99.90;;;;;;5050815;28;20455;-54
2020/12/05 10:45:11;;;;;;;17.23;11.10;;;4.30;99.90;;;;;;5053403;28;20445;-53
2020/12/05 10:47:36;;;;;;;17.80;11.27;;;5.20;99.90;;;;;;5058151;28;20392;-53
2020/12/05 10:50:02;;;;;;;20.42;11.77;;;5.50;99.90;;;;;;5060445;28;21715;-53
2020/12/05 10:52:28;;;;;;;20.13;12.80;;;4.20;99.90;;;;;;5053476;28;20410;-52
2020/12/05 10:54:53;;;;;;;21.93;13.87;;;4.20;99.90;;;;;;5064085;28;20419;-53
2020/12/05 10:57:19;;;;;;;21.10;12.30;;;6.40;99.90;;;;;;5052666;28;20409;-54
2020/12/05 10:59:45;;;;;;;23.50;12.73;;;4.20;99.90;;;;;;5050969;28;20380;-53
2020/12/05 11:02:10;;;;;;;20.02;12.60;;;5.30;99.90;;;;;;5049150;28;20801;-54
2020/12/05 11:04:36;;;;;;;19.70;13.03;;;4.30;99.90;;;;;;5053907;28;20856;-54
2020/12/05 11:07:02;;;;;;;24.80;14.70;;;4.20;99.90;;;;;;5054567;28;20413;-52
2020/12/05 11:09:27;;;;;;;24.67;15.93;;;5.90;99.90;;;;;;5060858;28;20467;-54
2020/12/05 11:11:53;;;;;;;27.92;18.65;;;5.50;99.90;;;;;;5056322;28;20949;-54
2020/12/05 11:14:19;;;;;;;31.47;18.90;;;5.80;99.90;;;;;;5055232;28;20377;-54
2020/12/05 11:16:44;;;;;;;30.57;18.43;;;5.90;99.90;;;;;;5049194;28;20859;-53
2020/12/05 11:19:10;;;;;;;26.65;16.80;;;5.20;99.90;;;;;;5049132;28;20377;-54
2020/12/05 11:21:36;;;;;;;25.57;15.47;;;4.20;99.90;;;;;;5049551;28;20397;-53
2020/12/05 11:24:01;;;;;;;26.15;15.55;;;4.70;99.90;;;;;;5050224;28;20397;-53
2020/12/05 11:26:27;;;;;;;25.43;16.20;;;4.30;99.90;;;;;;5056613;28;20910;-56
2020/12/05 11:28:52;;;;;;;32.37;19.57;;;5.40;99.90;;;;;;5048708;28;20802;-53
2020/12/05 11:31:18;;;;;;;29.25;17.40;;;4.50;99.90;;;;;;5058043;28;20390;-53
2020/12/05 11:33:44;;;;;;;23.00;15.80;;;4.60;99.90;;;;;;5064628;28;20401;-53
2020/12/05 11:36:10;;;;;;;24.15;14.50;;;4.60;99.90;;;;;;5048563;28;20903;-51
2020/12/05 11:38:36;;;;;;;22.48;14.85;;;4.70;99.90;;;;;;5052698;28;20411;-53
2020/12/05 11:41:02;;;;;;;22.27;15.40;;;4.70;99.90;;;;;;5058875;28;20379;-57
2020/12/05 11:43:28;;;;;;;21.13;13.50;;;4.70;99.90;;;;;;5048538;28;20952;-52
2020/12/05 11:45:53;;;;;;;21.55;13.82;;;4.70;99.90;;;;;;5047323;28;20902;-53
2020/12/05 11:48:19;;;;;;;24.07;14.80;;;4.70;99.90;;;;;;5050225;28;21268;-54
2020/12/05 11:50:45;;;;;;;25.13;16.87;;;6.30;99.90;;;;;;5046807;28;20404;-53
2020/12/05 11:53:10;;;;;;;27.35;15.15;;;4.80;99.90;;;;;;5044146;28;20402;-53
2020/12/05 11:55:36;;;;;;;31.47;20.83;;;4.80;99.90;;;;;;5049846;28;20417;-54
2020/12/05 11:58:02;;;;;;;27.05;18.00;;;4.90;99.90;;;;;;5047995;28;20875;-53
2020/12/05 12:00:27;;;;;;;28.05;18.05;;;4.90;99.90;;;;;;5048359;28;20512;-52
2020/12/05 12:02:54;;;;;;;33.20;20.17;;;4.80;99.90;;;;;;5049544;28;20404;-53
2020/12/05 12:05:19;;;;;;;28.27;17.23;;;4.80;99.90;;;;;;5046721;28;20770;-53
2020/12/05 12:07:46;;;;;;;25.67;14.33;;;4.90;99.90;;;;;;5048959;28;20872;-53
2020/12/05 12:10:12;;;;;;;18.80;13.80;;;5.90;99.90;;;;;;5047355;28;20393;-53
2020/12/05 12:12:37;;;;;;;19.85;13.40;;;4.90;99.90;;;;;;5049696;28;20470;-53
2020/12/05 12:15:04;;;;;;;22.70;14.15;;;4.90;99.90;;;;;;5049166;28;20389;-53
2020/12/05 12:17:29;;;;;;;21.77;13.68;;;5.00;99.90;;;;;;5047843;28;20408;-53
2020/12/05 12:19:55;;;;;;;22.60;14.82;;;5.00;99.90;;;;;;5048962;28;20393;-53
2020/12/05 12:22:20;;;;;;;19.33;13.63;;;5.00;99.90;;;;;;5048382;28;20397;-52
2020/12/05 12:24:46;;;;;;;21.67;13.13;;;5.10;99.90;;;;;;5047738;28;20485;-52
2020/12/05 12:27:12;;;;;;;17.48;12.25;;;5.20;99.90;;;;;;5045268;28;20425;-53
2020/12/05 12:29:37;;;;;;;17.37;12.20;;;7.30;99.90;;;;;;5049274;28;20850;-53
2020/12/05 12:32:03;;;;;;;19.17;12.50;;;5.10;99.90;;;;;;5048556;28;20393;-53
2020/12/05 12:34:29;;;;;;;21.27;12.82;;;5.20;99.90;;;;;;5047746;28;20802;-53
2020/12/05 12:36:54;;;;;;;20.47;13.17;;;5.80;99.90;;;;;;5048979;28;20384;-52
2020/12/05 12:39:20;;;;;;;19.58;12.23;;;5.20;99.90;;;;;;5047934;28;20385;-54
2020/12/05 12:41:46;;;;;;;18.10;12.10;;;5.20;99.90;;;;;;5044158;28;20407;-54
2020/12/05 12:44:11;;;;;;;19.98;12.52;;;6.80;99.90;;;;;;5042090;28;20881;-53